logo
Rechercher aéroport 
image banner adimage banner adimage banner ad
image banner ad

KBLH - Blythe

Situé à Blythe, United States

ICAO - BLH, IATA - BLH

Données fournies par Airmate  

Information générale

Coordonnées: N33°37'9" W114°43'1"
Élévation : 399 feet MSL.
Variation magnétique : 13° East
Voir autres Aéroports à California

Données opérationnelles

Special qualification required
Heure actuelle UTC:
Heure actuelle locale:
Météo
METAR: KBLH 281152Z AUTO 17006KT 10SM CLR 28/11 A2986 RMK AO2 SLP105 T02780111 10317 20278 53006 TSNO
TAF: KBLH 281120Z 2812/2912 35005KT P6SM SKC FM281800 17008KT P6SM FEW120
Voir NOTAMs / SUP AIP / TFR affectant cet aéroport [VIEW]
Fréquences de communication: [VIEW]

Pistes:

Identifiant RWYQFULongueur (ft)Largeur (ft)SurfaceLDA (ft)
0890°6543150ASPH
26270°6543150ASPH
17180°5800100ASPH
355800100ASPH

Coordonnées de l'aéroport

Adresse: Blythe United States

Vue satellite de KBLH